createdAt,value
2022-11-11T00:00:22.433Z,5.25
2022-11-11T00:03:08.747Z,4.53
2022-11-11T00:05:54.878Z,4.05
2022-11-11T00:08:41.018Z,4.95
2022-11-11T00:11:27.173Z,4.35
2022-11-11T00:14:13.363Z,4.32
2022-11-11T00:17:18.194Z,4.07
2022-11-11T00:20:24.428Z,4.40
2022-11-11T00:23:39.319Z,4.15
2022-11-11T00:26:39.209Z,3.95
2022-11-11T00:29:26.313Z,3.97
2022-11-11T00:32:24.762Z,4.75
2022-11-11T00:35:29.949Z,4.13
2022-11-11T00:38:34.893Z,4.13
2022-11-11T00:41:21.991Z,3.80
2022-11-11T00:44:08.017Z,3.70
2022-11-11T00:47:12.651Z,3.42
2022-11-11T00:50:17.334Z,3.60
2022-11-11T00:53:04.814Z,3.88
2022-11-11T00:55:51.094Z,3.58
2022-11-11T00:58:37.020Z,3.90
2022-11-11T01:01:23.257Z,3.85
2022-11-11T01:04:09.341Z,3.70
2022-11-11T01:06:55.469Z,4.05
2022-11-11T01:09:41.698Z,3.28
2022-11-11T01:12:28.031Z,3.25
2022-11-11T01:15:14.166Z,3.35
2022-11-11T01:18:00.450Z,3.33
2022-11-11T01:20:46.882Z,3.38
2022-11-11T01:23:34.369Z,3.10
2022-11-11T01:26:26.102Z,3.40
2022-11-11T01:29:16.401Z,2.72
2022-11-11T01:32:02.663Z,2.83
2022-11-11T01:34:48.780Z,3.28
2022-11-11T01:37:35.336Z,3.17
2022-11-11T01:40:21.819Z,3.22
2022-11-11T01:43:07.901Z,2.72
2022-11-11T01:45:55.085Z,2.58
2022-11-11T01:49:03.335Z,3.70
2022-11-11T01:51:52.502Z,2.97
2022-11-11T01:54:48.706Z,2.90
2022-11-11T01:57:37.618Z,3.05
2022-11-11T02:00:23.793Z,2.85
2022-11-11T02:03:11.269Z,2.58
2022-11-11T02:05:58.168Z,3.20
2022-11-11T02:08:44.679Z,3.55
2022-11-11T02:11:51.408Z,3.45
2022-11-11T02:14:43.015Z,3.05
2022-11-11T02:17:30.676Z,4.22
2022-11-11T02:20:19.426Z,2.92
2022-11-11T02:23:11.330Z,3.13
2022-11-11T02:28:43.818Z,3.83
2022-11-11T02:31:30.389Z,3.33
2022-11-11T02:34:16.639Z,3.40
2022-11-11T02:37:03.960Z,3.47
2022-11-11T02:40:06.732Z,3.20
2022-11-11T02:42:52.788Z,3.17
2022-11-11T02:45:39.309Z,3.83
2022-11-11T02:48:26.895Z,3.55
2022-11-11T02:51:13.410Z,3.15
2022-11-11T02:54:03.263Z,3.70
2022-11-11T02:57:07.672Z,3.92
2022-11-11T02:59:54.292Z,3.30
2022-11-11T03:02:40.409Z,3.25
2022-11-11T03:05:26.693Z,3.80
2022-11-11T03:08:12.844Z,3.70
2022-11-11T03:10:59.023Z,4.25
2022-11-11T03:13:45.067Z,3.58
2022-11-11T03:16:50.062Z,3.60
2022-11-11T03:19:36.798Z,4.05
2022-11-11T03:25:40.740Z,3.90
2022-11-11T03:28:27.307Z,4.30
2022-11-11T03:31:13.725Z,3.95
2022-11-11T03:34:18.063Z,4.15
2022-11-11T03:37:26.394Z,3.80
2022-11-11T03:40:12.748Z,4.28
2022-11-11T03:43:04.246Z,3.97
2022-11-11T03:45:56.375Z,4.90
2022-11-11T03:48:42.688Z,3.30
2022-11-11T03:51:29.000Z,4.03
2022-11-11T03:54:15.223Z,3.65
2022-11-11T03:57:19.885Z,4.32
2022-11-11T04:00:12.362Z,3.67
2022-11-11T04:03:27.794Z,3.72
2022-11-11T04:06:32.348Z,4.13
2022-11-11T04:09:37.098Z,3.63
2022-11-11T04:12:23.978Z,3.72
2022-11-11T04:15:28.619Z,4.30
2022-11-11T04:18:14.808Z,3.45
2022-11-11T04:21:19.767Z,3.35
2022-11-11T04:24:24.877Z,4.38
2022-11-11T04:27:12.175Z,3.60
2022-11-11T04:29:58.279Z,3.92
2022-11-11T04:32:47.400Z,3.38
2022-11-11T04:35:33.558Z,3.60
2022-11-11T04:38:38.362Z,3.88
2022-11-11T04:41:36.176Z,3.35
2022-11-11T04:44:48.983Z,3.78
2022-11-11T04:47:35.546Z,3.33
2022-11-11T04:50:21.590Z,3.20
2022-11-11T04:53:10.211Z,3.00
2022-11-11T04:56:14.705Z,2.72
2022-11-11T04:59:16.140Z,3.13
2022-11-11T05:02:20.511Z,2.85
2022-11-11T05:05:06.762Z,2.88
2022-11-11T05:08:12.114Z,3.22
2022-11-11T05:10:58.295Z,3.00
2022-11-11T05:14:03.004Z,3.20
2022-11-11T05:17:08.100Z,3.40
2022-11-11T05:20:12.905Z,3.53
2022-11-11T05:22:59.193Z,3.25
2022-11-11T05:25:45.316Z,3.10
2022-11-11T05:28:31.595Z,3.35
2022-11-11T05:31:17.849Z,3.88
2022-11-11T05:34:04.034Z,3.28
2022-11-11T05:36:50.197Z,3.03
2022-11-11T05:39:36.399Z,2.88
2022-11-11T05:42:22.589Z,4.25
2022-11-11T05:45:10.403Z,3.33
2022-11-11T05:48:00.080Z,3.20
2022-11-11T05:50:45.938Z,3.15
2022-11-11T05:53:33.962Z,3.00
2022-11-11T05:56:20.136Z,2.90
2022-11-11T05:59:06.567Z,2.95
2022-11-11T06:01:52.604Z,3.03
2022-11-11T06:04:38.851Z,3.00
2022-11-11T06:07:24.919Z,3.10
2022-11-11T06:10:30.000Z,3.20
2022-11-11T06:13:16.268Z,3.10
2022-11-11T06:16:03.026Z,3.03
2022-11-11T06:18:49.757Z,3.65
2022-11-11T06:21:55.971Z,3.22
2022-11-11T06:24:41.897Z,3.50
2022-11-11T06:27:28.034Z,3.65
2022-11-11T06:30:45.687Z,3.00
2022-11-11T06:33:21.659Z,3.45
2022-11-11T06:36:08.273Z,3.38
2022-11-11T06:38:54.285Z,3.33
2022-11-11T06:41:40.415Z,3.72
2022-11-11T06:44:26.539Z,3.30
2022-11-11T06:47:12.709Z,3.90
2022-11-11T06:49:58.913Z,3.25
2022-11-11T06:52:45.194Z,3.58
2022-11-11T06:55:31.480Z,3.83
2022-11-11T06:58:19.624Z,4.32
2022-11-11T07:01:06.591Z,4.30
2022-11-11T07:03:52.888Z,4.00
2022-11-11T07:06:40.326Z,4.80
2022-11-11T07:09:28.000Z,4.28
2022-11-11T07:12:13.899Z,5.05
2022-11-11T07:15:00.213Z,5.20
2022-11-11T07:17:46.299Z,5.00
2022-11-11T07:20:32.736Z,4.95
2022-11-11T07:23:18.987Z,6.43
2022-11-11T07:26:08.494Z,5.40
2022-11-11T07:28:54.378Z,5.97
2022-11-11T07:31:40.701Z,5.95
2022-11-11T07:34:28.698Z,5.65
2022-11-11T07:37:14.747Z,6.10
2022-11-11T07:40:01.255Z,5.75
2022-11-11T07:42:47.930Z,5.93
2022-11-11T07:45:34.038Z,6.00
2022-11-11T07:48:20.374Z,6.53
2022-11-11T07:51:06.723Z,6.00
2022-11-11T07:53:53.133Z,6.43
2022-11-11T07:56:39.341Z,6.82
2022-11-11T07:59:25.651Z,6.53
2022-11-11T08:02:12.387Z,6.85
2022-11-11T08:04:58.817Z,6.13
2022-11-11T08:07:45.157Z,9.20
2022-11-11T08:10:31.879Z,5.68
2022-11-11T08:13:36.723Z,5.95
2022-11-11T08:16:23.056Z,5.55
2022-11-11T08:19:09.159Z,5.63
2022-11-11T08:21:55.299Z,5.25
2022-11-11T08:25:02.751Z,5.85
2022-11-11T08:27:47.862Z,5.93
2022-11-11T08:30:34.265Z,6.10
2022-11-11T08:33:44.348Z,5.90
2022-11-11T08:36:27.082Z,5.57
2022-11-11T08:39:16.535Z,5.68
2022-11-11T08:42:03.208Z,5.90
2022-11-11T08:44:50.146Z,6.75
2022-11-11T08:47:37.101Z,6.32
2022-11-11T08:50:23.911Z,5.65
2022-11-11T08:53:10.592Z,5.95
2022-11-11T08:56:02.078Z,5.28
2022-11-11T08:58:51.199Z,4.95
2022-11-11T09:01:39.722Z,4.07
2022-11-11T09:07:32.440Z,3.42
2022-11-11T09:10:24.443Z,3.15
2022-11-11T09:13:10.769Z,2.78
2022-11-11T09:15:58.074Z,3.20
2022-11-11T09:18:44.203Z,2.80
2022-11-11T09:21:32.257Z,2.80
2022-11-11T09:24:18.237Z,3.17
2022-11-11T09:27:04.527Z,2.95
2022-11-11T09:29:50.789Z,3.22
2022-11-11T09:32:37.409Z,2.50
2022-11-11T09:35:23.829Z,2.90
2022-11-11T09:38:10.456Z,2.85
2022-11-11T09:41:15.321Z,2.42
2022-11-11T09:44:03.349Z,2.58
2022-11-11T09:47:09.933Z,2.50
2022-11-11T09:50:05.560Z,2.15
2022-11-11T09:53:00.512Z,1.70
2022-11-11T09:55:49.543Z,1.63
2022-11-11T09:58:38.654Z,1.85
2022-11-11T10:01:29.874Z,1.73
2022-11-11T10:04:31.165Z,1.75
2022-11-11T10:07:26.131Z,2.40
2022-11-11T10:10:33.354Z,2.22
2022-11-11T10:13:26.730Z,1.58
2022-11-11T10:16:15.857Z,1.65
2022-11-11T10:19:17.749Z,1.83
2022-11-11T10:22:13.107Z,2.75
2022-11-11T10:25:20.812Z,1.98
2022-11-11T10:28:07.995Z,1.95
2022-11-11T10:30:56.488Z,2.13
2022-11-11T10:33:49.890Z,2.10
2022-11-11T10:36:39.131Z,2.22
2022-11-11T10:39:29.788Z,2.13
2022-11-11T10:42:17.764Z,2.78
2022-11-11T10:45:09.952Z,3.03
2022-11-11T10:48:05.687Z,2.78
2022-11-11T10:50:53.909Z,2.70
2022-11-11T10:53:54.262Z,2.97
2022-11-11T10:56:43.788Z,3.15
2022-11-11T10:59:38.334Z,3.00
2022-11-11T11:02:27.273Z,2.90
2022-11-11T11:05:13.211Z,3.08
2022-11-11T11:08:02.863Z,3.22
2022-11-11T11:10:51.448Z,3.75
2022-11-11T11:13:52.565Z,4.13
2022-11-11T11:16:48.280Z,3.65
2022-11-11T11:19:34.478Z,4.13
2022-11-11T11:22:22.522Z,4.88
2022-11-11T11:25:10.998Z,5.20
2022-11-11T11:28:11.902Z,5.35
2022-11-11T11:31:02.789Z,4.97
2022-11-11T11:33:53.612Z,5.13
2022-11-11T11:36:39.592Z,5.43
2022-11-11T11:39:38.987Z,5.20
2022-11-11T11:42:33.015Z,5.35
2022-11-11T11:45:28.501Z,5.20
2022-11-11T11:48:50.125Z,5.20
2022-11-11T11:51:39.619Z,5.72
2022-11-11T11:54:44.280Z,5.18
2022-11-11T11:57:53.953Z,4.88
2022-11-11T12:00:46.834Z,4.75
2022-11-11T12:03:59.310Z,5.40
2022-11-11T12:09:40.846Z,5.55
2022-11-11T12:12:45.990Z,5.43
2022-11-11T12:15:47.474Z,5.40
2022-11-11T12:18:52.640Z,5.15
2022-11-11T12:21:57.550Z,5.15
2022-11-11T12:24:56.433Z,4.93
2022-11-11T12:28:04.981Z,5.00
2022-11-11T12:31:09.747Z,5.20
2022-11-11T12:34:02.093Z,5.60
2022-11-11T12:36:55.684Z,5.22
2022-11-11T12:40:00.853Z,5.22
2022-11-11T12:43:03.195Z,5.10
2022-11-11T12:45:52.756Z,4.93
2022-11-11T12:48:45.901Z,4.18
2022-11-11T12:51:32.018Z,4.90
2022-11-11T12:54:18.406Z,4.70
2022-11-11T12:57:13.308Z,4.97
2022-11-11T13:00:04.193Z,4.65
2022-11-11T13:03:09.251Z,4.63
2022-11-11T13:06:06.711Z,4.32
2022-11-11T13:09:03.093Z,4.40
2022-11-11T13:12:13.988Z,4.55
2022-11-11T13:15:19.444Z,4.50
2022-11-11T13:18:11.750Z,4.57
2022-11-11T13:23:44.357Z,4.07
2022-11-11T13:26:39.825Z,4.35
2022-11-11T13:29:36.336Z,3.80
2022-11-11T13:32:26.045Z,4.00
2022-11-11T13:35:20.838Z,3.50
2022-11-11T13:38:07.093Z,3.88
2022-11-11T13:40:54.975Z,3.60
2022-11-11T13:43:45.586Z,3.80
2022-11-11T13:46:34.696Z,3.80
2022-11-11T13:49:27.244Z,3.78
2022-11-11T13:52:25.213Z,3.65
2022-11-11T13:55:33.093Z,3.67
2022-11-11T13:58:24.358Z,4.30
2022-11-11T14:01:12.158Z,3.30
2022-11-11T14:03:59.738Z,3.45
2022-11-11T14:06:48.848Z,3.72
2022-11-11T14:09:54.996Z,3.80
2022-11-11T14:12:50.696Z,3.58
2022-11-11T14:15:42.909Z,3.20
2022-11-11T14:18:39.748Z,3.03
2022-11-11T14:21:48.617Z,3.60
2022-11-11T14:24:39.881Z,3.40
2022-11-11T14:27:28.121Z,3.13
2022-11-11T14:30:34.813Z,3.05
2022-11-11T14:33:35.925Z,3.20
2022-11-11T14:36:40.634Z,3.17
2022-11-11T14:39:29.938Z,2.92
2022-11-11T14:42:36.468Z,3.10
2022-11-11T14:45:31.567Z,3.25
2022-11-11T14:48:36.824Z,3.28
2022-11-11T14:51:41.637Z,3.10
2022-11-11T14:54:37.962Z,3.38
2022-11-11T14:57:25.768Z,3.20
2022-11-11T15:00:15.268Z,3.10
2022-11-11T15:03:04.652Z,2.80
2022-11-11T15:05:57.735Z,3.25
2022-11-11T15:09:03.441Z,3.15
2022-11-11T15:11:56.976Z,3.10
2022-11-11T15:14:48.136Z,3.33
2022-11-11T15:17:41.046Z,2.90
2022-11-11T15:20:42.463Z,3.08
2022-11-11T15:23:36.042Z,3.17
2022-11-11T15:26:27.335Z,3.17
2022-11-11T15:29:16.354Z,3.20
2022-11-11T15:32:17.824Z,3.13
2022-11-11T15:35:07.032Z,3.80
2022-11-11T15:37:54.831Z,3.35
2022-11-11T15:40:51.166Z,2.95
2022-11-11T15:43:40.073Z,3.55
2022-11-11T15:46:30.822Z,3.97
2022-11-11T15:49:36.888Z,3.35
2022-11-11T15:52:30.479Z,3.60
2022-11-11T15:55:37.190Z,3.85
2022-11-11T15:58:30.672Z,3.50
2022-11-11T16:01:17.052Z,3.85
2022-11-11T16:04:03.135Z,4.10
2022-11-11T16:06:50.026Z,4.30
2022-11-11T16:09:38.273Z,4.35
2022-11-11T16:12:26.522Z,4.03
2022-11-11T16:15:20.200Z,4.75
2022-11-11T16:18:10.841Z,5.10
2022-11-11T16:21:14.955Z,4.95
2022-11-11T16:24:01.450Z,4.80
2022-11-11T16:26:47.779Z,5.32
2022-11-11T16:29:37.280Z,5.47
2022-11-11T16:32:26.412Z,4.85
2022-11-11T16:35:27.020Z,5.20
2022-11-11T16:38:30.397Z,5.40
2022-11-11T16:41:28.216Z,5.20
2022-11-11T16:44:37.404Z,4.80
2022-11-11T16:47:43.960Z,6.07
2022-11-11T16:50:30.156Z,4.90
2022-11-11T16:53:26.812Z,5.57
2022-11-11T16:56:27.502Z,5.47
2022-11-11T16:59:17.035Z,6.40
2022-11-11T17:02:02.959Z,6.80
2022-11-11T17:04:53.737Z,6.57
2022-11-11T17:07:41.427Z,6.70
2022-11-11T17:10:28.979Z,7.45
2022-11-11T17:13:15.223Z,6.00
2022-11-11T17:16:07.690Z,7.47
2022-11-11T17:18:54.701Z,7.03
2022-11-11T17:21:41.362Z,7.45
2022-11-11T17:24:27.583Z,7.25
2022-11-11T17:27:13.750Z,11.63
2022-11-11T17:30:00.081Z,8.15
2022-11-11T17:32:49.177Z,7.80
2022-11-11T17:35:35.339Z,7.60
2022-11-11T17:38:21.728Z,13.52
2022-11-11T17:41:07.932Z,14.10
2022-11-11T17:43:54.118Z,13.77
2022-11-11T17:46:40.335Z,16.83
2022-11-11T17:49:50.214Z,19.55
2022-11-11T17:52:32.644Z,17.35
2022-11-11T17:55:19.010Z,18.00
2022-11-11T17:58:05.154Z,15.00
2022-11-11T18:00:51.381Z,14.80
2022-11-11T18:03:37.907Z,15.60
2022-11-11T18:06:23.999Z,15.00
2022-11-11T18:09:10.355Z,15.18
2022-11-11T18:11:56.746Z,15.85
2022-11-11T18:14:42.803Z,13.75
2022-11-11T18:17:29.201Z,13.63
2022-11-11T18:20:15.698Z,13.43
2022-11-11T18:23:01.922Z,13.38
2022-11-11T18:25:48.110Z,13.70
2022-11-11T18:28:38.117Z,12.63
2022-11-11T18:31:24.044Z,12.48
2022-11-11T18:34:10.325Z,12.13
2022-11-11T18:36:56.628Z,11.68
2022-11-11T18:39:42.924Z,16.17
2022-11-11T18:42:29.107Z,14.40
2022-11-11T18:45:15.388Z,14.02
2022-11-11T18:48:01.708Z,14.95
2022-11-11T18:50:55.022Z,15.15
2022-11-11T18:53:41.339Z,13.90
2022-11-11T18:56:28.283Z,14.98
2022-11-11T18:59:14.470Z,15.18
2022-11-11T19:02:00.638Z,14.35
2022-11-11T19:04:46.906Z,15.05
2022-11-11T19:07:33.187Z,19.55
2022-11-11T19:10:19.538Z,15.80
2022-11-11T19:13:05.650Z,15.85
2022-11-11T19:15:51.966Z,15.30
2022-11-11T19:18:38.390Z,18.60
2022-11-11T19:21:28.437Z,21.67
2022-11-11T19:24:15.292Z,21.00
2022-11-11T19:27:01.683Z,67.95
2022-11-11T19:29:47.939Z,95.50
2022-11-11T19:32:34.131Z,54.60
2022-11-11T19:35:20.624Z,61.72
2022-11-11T19:38:06.859Z,54.58
2022-11-11T19:40:53.040Z,62.65
2022-11-11T19:43:39.442Z,48.65
2022-11-11T19:46:27.703Z,54.03
2022-11-11T19:49:13.819Z,38.67
2022-11-11T19:52:00.081Z,34.95
2022-11-11T19:54:46.363Z,29.60
2022-11-11T19:57:35.099Z,19.67
2022-11-11T20:00:21.611Z,25.83
2022-11-11T20:03:07.845Z,22.77
2022-11-11T20:05:54.033Z,14.13
2022-11-11T20:08:40.336Z,14.35
2022-11-11T20:11:26.967Z,13.18
2022-11-11T20:14:13.270Z,11.63
2022-11-11T20:17:06.308Z,12.20
2022-11-11T20:19:59.223Z,12.55
2022-11-11T20:22:47.719Z,13.00
2022-11-11T20:25:37.860Z,12.52
2022-11-11T20:28:24.365Z,12.80
2022-11-11T20:31:11.879Z,11.77
2022-11-11T20:33:57.963Z,10.85
2022-11-11T20:36:44.282Z,10.43
2022-11-11T20:39:30.375Z,11.65
2022-11-11T20:42:16.757Z,12.43
2022-11-11T20:45:02.946Z,10.32
2022-11-11T20:47:49.162Z,12.70
2022-11-11T20:50:42.131Z,12.00
2022-11-11T20:53:30.407Z,12.20
2022-11-11T20:56:22.443Z,12.95
2022-11-11T20:59:10.222Z,11.73
2022-11-11T21:01:56.544Z,11.95
2022-11-11T21:04:42.872Z,12.63
2022-11-11T21:07:29.324Z,11.55
2022-11-11T21:10:15.570Z,17.83
2022-11-11T21:13:01.869Z,17.17
2022-11-11T21:15:48.148Z,19.23
2022-11-11T21:18:34.648Z,19.52
2022-11-11T21:21:34.553Z,24.80
2022-11-11T21:24:37.123Z,21.65
2022-11-11T21:27:31.383Z,23.85
2022-11-11T21:30:19.616Z,21.70
2022-11-11T21:33:08.893Z,19.85
2022-11-11T21:36:01.367Z,18.20
2022-11-11T21:38:47.801Z,18.42
2022-11-11T21:41:38.269Z,18.33
2022-11-11T21:44:24.236Z,17.35
2022-11-11T21:47:11.475Z,18.58
2022-11-11T21:49:57.513Z,17.63
2022-11-11T21:52:43.869Z,17.55
2022-11-11T21:55:52.284Z,18.02
2022-11-11T21:58:52.341Z,17.25
2022-11-11T22:01:40.811Z,16.27
2022-11-11T22:04:26.926Z,16.20
2022-11-11T22:07:18.822Z,17.42
2022-11-11T22:10:06.275Z,16.60
2022-11-11T22:12:52.721Z,17.58
2022-11-11T22:15:38.949Z,16.13
2022-11-11T22:18:25.449Z,15.93
2022-11-11T22:21:17.542Z,16.10
2022-11-11T22:24:04.755Z,16.88
2022-11-11T22:26:50.817Z,16.92
2022-11-11T22:29:36.983Z,17.65
2022-11-11T22:32:23.263Z,18.05
2022-11-11T22:35:09.490Z,18.30
2022-11-11T22:37:55.809Z,19.02
2022-11-11T22:40:42.193Z,17.85
2022-11-11T22:43:57.426Z,18.65
2022-11-11T22:46:35.597Z,18.52
2022-11-11T22:49:21.667Z,18.13
2022-11-11T22:52:08.120Z,19.92
2022-11-11T22:54:54.036Z,18.05
2022-11-11T22:57:40.448Z,18.13
2022-11-11T23:00:26.850Z,18.65
2022-11-11T23:03:13.229Z,16.80
2022-11-11T23:06:03.443Z,17.92
2022-11-11T23:08:49.601Z,20.65
2022-11-11T23:11:36.985Z,17.92
2022-11-11T23:14:23.457Z,22.17
2022-11-11T23:17:16.777Z,19.15
2022-11-11T23:20:02.664Z,20.23
2022-11-11T23:22:48.824Z,20.50
2022-11-11T23:25:35.141Z,20.00
2022-11-11T23:28:21.788Z,18.65
2022-11-11T23:31:09.694Z,19.30
2022-11-11T23:33:58.757Z,17.80
2022-11-11T23:36:44.595Z,18.92
2022-11-11T23:39:30.984Z,16.92
2022-11-11T23:42:17.334Z,18.50
2022-11-11T23:45:03.555Z,18.35
2022-11-11T23:47:49.777Z,16.75
2022-11-11T23:50:36.059Z,18.45
2022-11-11T23:53:22.441Z,18.77
2022-11-11T23:56:09.004Z,18.10
2022-11-11T23:58:55.047Z,18.45
